createdAt,value
2017-04-06T00:00:57.739Z,1012.23
2017-04-06T00:02:06.944Z,1012.29
2017-04-06T00:03:15.892Z,1012.27
2017-04-06T00:04:24.836Z,1012.25
2017-04-06T00:05:33.790Z,1012.35
2017-04-06T00:06:42.743Z,1012.38
2017-04-06T00:07:51.946Z,1012.27
2017-04-06T00:09:00.896Z,1012.25
2017-04-06T00:10:09.851Z,1012.16
2017-04-06T00:11:18.802Z,1012.27
2017-04-06T00:12:27.758Z,1012.17
2017-04-06T00:13:36.956Z,1012.3
2017-04-06T00:14:45.908Z,1012.19
2017-04-06T00:15:54.869Z,1012.29
2017-04-06T00:17:03.823Z,1012.26
2017-04-06T00:18:12.780Z,1012.27
2017-04-06T00:19:21.980Z,1012.21
2017-04-06T00:20:30.932Z,1012.27
2017-04-06T00:21:39.887Z,1012.25
2017-04-06T00:22:48.840Z,1012.22
2017-04-06T00:23:57.792Z,1012.2
2017-04-06T00:25:06.996Z,1012.2
2017-04-06T00:26:15.949Z,1012.22
2017-04-06T00:27:24.902Z,1012.16
2017-04-06T00:28:33.853Z,1012.22
2017-04-06T00:29:42.803Z,1012.18
2017-04-06T00:30:52.008Z,1012.21
2017-04-06T00:32:00.956Z,1012.22
2017-04-06T00:33:09.906Z,1012.24
2017-04-06T00:34:18.859Z,1012.23
2017-04-06T00:35:28.134Z,1012.23
2017-04-06T00:36:37.341Z,1012.25
2017-04-06T00:37:46.291Z,1012.24
2017-04-06T00:38:55.238Z,1012.23
2017-04-06T00:40:04.190Z,1012.25
2017-04-06T00:41:13.142Z,1012.26
2017-04-06T00:42:22.345Z,1012.28
2017-04-06T00:43:31.296Z,1012.29
2017-04-06T00:44:40.248Z,1012.29
2017-04-06T00:45:49.200Z,1012.26
2017-04-06T00:46:58.157Z,1012.33
2017-04-06T00:48:07.359Z,1012.31
2017-04-06T00:49:16.311Z,1012.32
2017-04-06T00:50:25.259Z,1012.33
2017-04-06T00:51:34.213Z,1012.36
2017-04-06T00:52:43.162Z,1012.26
2017-04-06T00:53:52.366Z,1012.27
2017-04-06T00:55:01.314Z,1012.28
2017-04-06T00:56:10.263Z,1012.33
2017-04-06T00:57:19.216Z,1012.32
2017-04-06T00:58:28.165Z,1012.32
2017-04-06T00:59:37.363Z,1012.37
2017-04-06T01:00:46.314Z,1012.38
2017-04-06T01:01:55.268Z,1012.33
2017-04-06T01:03:04.224Z,1012.34
2017-04-06T01:04:13.181Z,1012.32
2017-04-06T01:05:22.387Z,1012.35
2017-04-06T01:06:31.341Z,1012.34
2017-04-06T01:07:40.305Z,1012.34
2017-04-06T01:08:49.261Z,1012.34
2017-04-06T01:09:58.211Z,1012.29
2017-04-06T01:11:07.418Z,1012.33
2017-04-06T01:12:16.372Z,1012.32
2017-04-06T01:13:25.323Z,1012.34
2017-04-06T01:14:34.274Z,1012.31
2017-04-06T01:15:43.257Z,1012.26
2017-04-06T01:16:52.461Z,1012.25
2017-04-06T01:18:01.418Z,1012.22
2017-04-06T01:19:10.372Z,1012.33
2017-04-06T01:20:19.325Z,1012.33
2017-04-06T01:21:28.274Z,1012.33
2017-04-06T01:22:37.529Z,1012.32
2017-04-06T01:23:46.479Z,1012.37
2017-04-06T01:24:55.431Z,1012.39
2017-04-06T01:26:04.382Z,1012.38
2017-04-06T01:27:13.335Z,1012.4
2017-04-06T01:28:22.538Z,1012.42
2017-04-06T01:29:31.486Z,1012.44
2017-04-06T01:30:40.775Z,1012.34
2017-04-06T01:31:49.725Z,1012.44
2017-04-06T01:32:58.686Z,1012.46
2017-04-06T01:34:07.890Z,1012.41
2017-04-06T01:35:17.165Z,1012.42
2017-04-06T01:36:26.125Z,1012.43
2017-04-06T01:37:35.079Z,1012.41
2017-04-06T01:38:44.031Z,1012.39
2017-04-06T01:39:53.234Z,1012.41
2017-04-06T01:41:02.188Z,1012.39
2017-04-06T01:42:11.146Z,1012.34
2017-04-06T01:43:20.097Z,1012.39
2017-04-06T01:44:29.052Z,1012.41
2017-04-06T01:45:38.259Z,1012.38
2017-04-06T01:46:47.215Z,1012.32
2017-04-06T01:47:56.167Z,1012.29
2017-04-06T01:49:05.204Z,1012.38
2017-04-06T01:50:14.245Z,1012.39
2017-04-06T01:51:23.483Z,1012.36
2017-04-06T01:52:32.441Z,1012.34
2017-04-06T01:53:41.395Z,1012.41
2017-04-06T01:54:50.440Z,1012.44
2017-04-06T01:55:59.392Z,1012.42
2017-04-06T01:57:08.592Z,1012.46
2017-04-06T01:58:17.546Z,1012.41
2017-04-06T01:59:26.499Z,1012.45
2017-04-06T02:00:35.784Z,1012.46
2017-04-06T02:01:44.742Z,1012.49
2017-04-06T02:02:54.035Z,1012.44
2017-04-06T02:04:02.991Z,1012.49
2017-04-06T02:05:11.951Z,1012.49
2017-04-06T02:06:20.906Z,1012.47
2017-04-06T02:07:29.865Z,1012.55
2017-04-06T02:08:39.069Z,1012.56
2017-04-06T02:09:48.021Z,1012.58
2017-04-06T02:10:56.967Z,1012.56
2017-04-06T02:12:05.916Z,1012.58
2017-04-06T02:13:14.866Z,1012.57
2017-04-06T02:14:24.074Z,1012.5
2017-04-06T02:15:33.020Z,1012.58
2017-04-06T02:16:41.972Z,1012.61
2017-04-06T02:17:50.916Z,1012.67
2017-04-06T02:18:59.873Z,1012.64
2017-04-06T02:20:09.079Z,1012.61
2017-04-06T02:21:18.037Z,1012.6
2017-04-06T02:22:26.989Z,1012.59
2017-04-06T02:23:35.936Z,1012.62
2017-04-06T02:24:44.884Z,1012.55
2017-04-06T02:25:54.085Z,1012.65
2017-04-06T02:27:03.035Z,1012.63
2017-04-06T02:28:12.018Z,1012.59
2017-04-06T02:29:20.965Z,1012.59
2017-04-06T02:30:29.920Z,1012.53
2017-04-06T02:31:39.123Z,1012.56
2017-04-06T02:32:48.078Z,1012.6
2017-04-06T02:33:57.116Z,1012.66
2017-04-06T02:35:06.076Z,1012.68
2017-04-06T02:36:15.116Z,1012.69
2017-04-06T02:37:24.317Z,1012.73
2017-04-06T02:38:33.269Z,1012.61
2017-04-06T02:39:42.220Z,1012.68
2017-04-06T02:40:51.174Z,1012.66
2017-04-06T02:42:00.125Z,1012.7
2017-04-06T02:43:09.330Z,1012.73
2017-04-06T02:44:18.280Z,1012.67
2017-04-06T02:45:27.230Z,1012.75
2017-04-06T02:46:36.180Z,1012.67
2017-04-06T02:47:45.130Z,1012.7
2017-04-06T02:48:54.334Z,1012.69
2017-04-06T02:50:03.287Z,1012.63
2017-04-06T02:51:12.236Z,1012.72
2017-04-06T02:52:21.189Z,1012.7
2017-04-06T02:53:30.137Z,1012.71
2017-04-06T02:54:39.332Z,1012.74
2017-04-06T02:55:48.284Z,1012.77
2017-04-06T02:56:57.235Z,1012.78
2017-04-06T02:58:06.192Z,1012.73
2017-04-06T02:59:15.156Z,1012.77
2017-04-06T03:00:24.360Z,1012.68
2017-04-06T03:01:33.648Z,1012.75
2017-04-06T03:02:42.599Z,1012.78
2017-04-06T03:03:51.556Z,1012.81
2017-04-06T03:05:00.508Z,1012.82
2017-04-06T03:06:09.768Z,1012.92
2017-04-06T03:07:18.719Z,1012.89
2017-04-06T03:08:27.673Z,1012.99
2017-04-06T03:09:36.625Z,1012.91
2017-04-06T03:10:45.574Z,1012.91
2017-04-06T03:11:54.826Z,1012.94
2017-04-06T03:13:03.778Z,1012.95
2017-04-06T03:14:12.732Z,1012.93
2017-04-06T03:15:22.006Z,1012.98
2017-04-06T03:16:30.957Z,1012.99
2017-04-06T03:17:40.494Z,1013.06
2017-04-06T03:18:49.447Z,1013.04
2017-04-06T03:19:58.395Z,1013.02
2017-04-06T03:21:07.432Z,1013.05
2017-04-06T03:22:16.407Z,1013.05
2017-04-06T03:23:25.612Z,1013.06
2017-04-06T03:24:34.564Z,1013.05
2017-04-06T03:25:43.515Z,1013.06
2017-04-06T03:26:52.468Z,1013.04
2017-04-06T03:28:01.419Z,1012.95
2017-04-06T03:29:10.944Z,1012.93
2017-04-06T03:30:19.891Z,1012.99
2017-04-06T03:31:28.843Z,1013.02
2017-04-06T03:32:38.127Z,1012.96
2017-04-06T03:33:47.077Z,1012.9
2017-04-06T03:34:56.367Z,1013.04
2017-04-06T03:36:05.319Z,1013.11
2017-04-06T03:37:14.268Z,1013.06
2017-04-06T03:38:23.220Z,1013.1
2017-04-06T03:39:32.168Z,1013.12
2017-04-06T03:40:41.377Z,1013.14
2017-04-06T03:41:50.331Z,1013.13
2017-04-06T03:42:59.286Z,1013.17
2017-04-06T03:44:08.245Z,1013.19
2017-04-06T03:45:17.197Z,1013.18
2017-04-06T03:46:26.407Z,1013.23
2017-04-06T03:47:35.364Z,1013.19
2017-04-06T03:48:44.345Z,1013.2
2017-04-06T03:49:53.384Z,1013.27
2017-04-06T03:51:02.334Z,1013.27
2017-04-06T03:52:11.535Z,1013.29
2017-04-06T03:53:20.491Z,1013.36
2017-04-06T03:54:29.438Z,1013.34
2017-04-06T03:55:38.388Z,1013.33
2017-04-06T03:56:47.342Z,1013.33
2017-04-06T03:57:56.593Z,1013.36
2017-04-06T03:59:05.548Z,1013.3
2017-04-06T04:00:14.505Z,1013.28
2017-04-06T04:01:23.449Z,1013.31
2017-04-06T04:02:32.401Z,1013.32
2017-04-06T04:03:41.598Z,1013.37
2017-04-06T04:04:50.547Z,1013.38
2017-04-06T04:05:59.510Z,1013.36
2017-04-06T04:07:08.467Z,1013.41
2017-04-06T04:08:17.418Z,1013.4
2017-04-06T04:09:26.614Z,1013.53
2017-04-06T04:10:35.561Z,1013.44
2017-04-06T04:11:44.514Z,1013.5
2017-04-06T04:12:53.469Z,1013.49
2017-04-06T04:14:02.422Z,1013.43
2017-04-06T04:15:11.629Z,1013.49
2017-04-06T04:16:20.607Z,1013.49
2017-04-06T04:17:29.566Z,1013.47
2017-04-06T04:18:38.518Z,1013.47
2017-04-06T04:19:47.467Z,1013.53
2017-04-06T04:20:56.743Z,1013.49
2017-04-06T04:22:05.697Z,1013.53
2017-04-06T04:23:14.649Z,1013.48
2017-04-06T04:24:23.598Z,1013.47
2017-04-06T04:25:32.569Z,1013.49
2017-04-06T04:26:41.770Z,1013.52
2017-04-06T04:27:50.727Z,1013.46
2017-04-06T04:28:59.682Z,1013.49
2017-04-06T04:30:08.636Z,1013.49
2017-04-06T04:31:17.586Z,1013.49
2017-04-06T04:32:26.791Z,1013.49
2017-04-06T04:33:35.747Z,1013.53
2017-04-06T04:34:44.700Z,1013.61
2017-04-06T04:35:53.748Z,1013.59
2017-04-06T04:37:02.704Z,1013.63
2017-04-06T04:38:11.962Z,1013.58
2017-04-06T04:39:20.917Z,1013.62
2017-04-06T04:40:29.873Z,1013.7
2017-04-06T04:41:38.828Z,1013.64
2017-04-06T04:42:47.791Z,1013.7
2017-04-06T04:43:57.013Z,1013.72
2017-04-06T04:45:05.971Z,1013.7
2017-04-06T04:46:14.929Z,1013.85
2017-04-06T04:47:23.887Z,1013.81
2017-04-06T04:48:32.844Z,1013.85
2017-04-06T04:49:42.369Z,1013.83
2017-04-06T04:50:51.323Z,1013.86
2017-04-06T04:52:00.272Z,1013.86
2017-04-06T04:53:09.310Z,1013.92
2017-04-06T04:54:18.357Z,1013.89
2017-04-06T04:55:27.614Z,1013.95
2017-04-06T04:56:36.561Z,1014.07
2017-04-06T04:57:45.517Z,1014.05
2017-04-06T04:58:54.464Z,1013.97
2017-04-06T05:00:03.410Z,1013.93
2017-04-06T05:01:12.616Z,1013.98
2017-04-06T05:02:21.572Z,1014.05
2017-04-06T05:03:30.527Z,1014.05
2017-04-06T05:04:39.567Z,1014.04
2017-04-06T05:05:48.526Z,1014.14
2017-04-06T05:06:57.733Z,1014.14
2017-04-06T05:08:06.692Z,1014.1
2017-04-06T05:09:15.644Z,1014.13
2017-04-06T05:10:24.592Z,1014.15
2017-04-06T05:11:33.544Z,1014.16
2017-04-06T05:12:42.833Z,1014.19
2017-04-06T05:13:51.816Z,1014.17
2017-04-06T05:15:00.893Z,1014.11
2017-04-06T05:16:09.855Z,1014.13
2017-04-06T05:17:18.913Z,1014.19
2017-04-06T05:18:28.117Z,1014.14
2017-04-06T05:19:37.065Z,1014.15
2017-04-06T05:20:46.017Z,1014.13
2017-04-06T05:21:54.967Z,1014.18
2017-04-06T05:23:03.917Z,1014.19
2017-04-06T05:24:13.442Z,1014.22
2017-04-06T05:25:22.391Z,1014.21
2017-04-06T05:26:31.354Z,1014.15
2017-04-06T05:27:40.318Z,1014.23
2017-04-06T05:28:49.361Z,1014.2
2017-04-06T05:29:58.560Z,1014.2
2017-04-06T05:31:07.508Z,1014.22
2017-04-06T05:32:16.462Z,1014.2
2017-04-06T05:33:25.414Z,1014.17
2017-04-06T05:34:34.364Z,1014.21
2017-04-06T05:35:43.568Z,1014.19
2017-04-06T05:36:52.521Z,1014.17
2017-04-06T05:38:01.472Z,1014.21
2017-04-06T05:39:10.508Z,1014.21
2017-04-06T05:40:19.459Z,1014.24
2017-04-06T05:41:28.920Z,1014.23
2017-04-06T05:42:38.951Z,1014.3
2017-04-06T05:43:47.899Z,1014.33
2017-04-06T05:44:56.856Z,1014.3
2017-04-06T05:46:05.812Z,1014.34
2017-04-06T05:47:15.011Z,1014.3
2017-04-06T05:48:23.963Z,1014.32
2017-04-06T05:49:33.132Z,1014.33
2017-04-06T05:50:43.051Z,1014.39
2017-04-06T05:51:52.005Z,1014.36
2017-04-06T05:53:01.219Z,1014.35
2017-04-06T05:54:10.175Z,1014.38
2017-04-06T05:55:19.130Z,1014.38
2017-04-06T05:56:28.086Z,1014.43
2017-04-06T05:57:37.037Z,1014.51
2017-04-06T05:58:46.241Z,1014.56
2017-04-06T05:59:55.191Z,1014.54
2017-04-06T06:01:04.141Z,1014.44
2017-04-06T06:02:13.202Z,1014.48
2017-04-06T06:03:22.156Z,1014.49
2017-04-06T06:04:31.359Z,1014.49
2017-04-06T06:05:40.310Z,1014.5
2017-04-06T06:06:49.348Z,1014.57
2017-04-06T06:07:58.305Z,1014.57
2017-04-06T06:09:07.490Z,1014.59
2017-04-06T06:10:17.023Z,1014.55
2017-04-06T06:11:25.974Z,1014.62
2017-04-06T06:12:34.923Z,1014.68
2017-04-06T06:13:43.879Z,1014.7
2017-04-06T06:14:52.932Z,1014.65
2017-04-06T06:16:02.138Z,1014.68
2017-04-06T06:17:11.149Z,1014.69
2017-04-06T06:18:20.108Z,1014.74
2017-04-06T06:19:29.384Z,1014.75
2017-04-06T06:20:38.336Z,1014.74
2017-04-06T06:21:48.206Z,1014.79
2017-04-06T06:22:57.157Z,1014.73
2017-04-06T06:24:06.137Z,1014.78
2017-04-06T06:25:15.094Z,1014.78
2017-04-06T06:26:24.050Z,1014.81
2017-04-06T06:27:33.259Z,1014.78
2017-04-06T06:28:42.300Z,1014.83
2017-04-06T06:29:51.248Z,1014.87
2017-04-06T06:31:00.290Z,1014.92
2017-04-06T06:32:09.258Z,1014.84
2017-04-06T06:33:18.544Z,1014.89
2017-04-06T06:34:27.503Z,1014.93
2017-04-06T06:35:36.467Z,1014.93
2017-04-06T06:36:45.505Z,1014.91
2017-04-06T06:37:54.463Z,1014.9
2017-04-06T06:39:03.662Z,1014.92
2017-04-06T06:40:12.701Z,1014.94
2017-04-06T06:41:21.650Z,1014.99
2017-04-06T06:42:30.600Z,1014.99
2017-04-06T06:43:39.561Z,1014.98
2017-04-06T06:44:49.177Z,1014.98
2017-04-06T06:45:58.131Z,1014.98
2017-04-06T06:47:07.081Z,1015
2017-04-06T06:48:16.035Z,1015.06
2017-04-06T06:49:25.007Z,1015.08
2017-04-06T06:50:34.208Z,1015
2017-04-06T06:51:43.169Z,1014.95
2017-04-06T06:52:52.169Z,1014.97
2017-04-06T06:54:01.146Z,1014.95
2017-04-06T06:55:10.119Z,1014.99
2017-04-06T06:56:19.345Z,1015.03
2017-04-06T06:57:28.322Z,1015.05
2017-04-06T06:58:37.292Z,1014.94
2017-04-06T06:59:46.281Z,1014.93
2017-04-06T07:00:55.347Z,1015.04
2017-04-06T07:02:04.572Z,1015.01
2017-04-06T07:03:13.547Z,1015.01
2017-04-06T07:04:22.520Z,1015.02
2017-04-06T07:05:31.494Z,1015.02
2017-04-06T07:06:40.494Z,1014.99
2017-04-06T07:07:49.725Z,1015.12
2017-04-06T07:08:58.724Z,1015.06
2017-04-06T07:10:07.781Z,1015.08
2017-04-06T07:11:16.758Z,1015.05
2017-04-06T07:12:25.734Z,1015.08
2017-04-06T07:13:34.963Z,1015.1
2017-04-06T07:14:43.936Z,1015.13
2017-04-06T07:15:52.914Z,1015.17
2017-04-06T07:17:01.884Z,1015.26
2017-04-06T07:18:10.864Z,1015.34
2017-04-06T07:19:20.093Z,1015.41
2017-04-06T07:20:29.069Z,1015.31
2017-04-06T07:21:38.165Z,1015.43
2017-04-06T07:22:47.233Z,1015.37
2017-04-06T07:23:56.294Z,1015.33
2017-04-06T07:25:05.609Z,1015.39
2017-04-06T07:26:14.589Z,1015.47
2017-04-06T07:27:23.562Z,1015.41
2017-04-06T07:28:32.541Z,1015.37
2017-04-06T07:29:41.610Z,1015.35
2017-04-06T07:30:50.836Z,1015.4
2017-04-06T07:31:59.813Z,1015.38
2017-04-06T07:33:08.788Z,1015.47
2017-04-06T07:34:17.849Z,1015.42
2017-04-06T07:35:26.818Z,1015.43
2017-04-06T07:36:36.048Z,1015.47
2017-04-06T07:37:45.020Z,1015.38
2017-04-06T07:38:53.991Z,1015.44
2017-04-06T07:40:02.968Z,1015.44
2017-04-06T07:41:11.943Z,1015.37
2017-04-06T07:42:21.168Z,1015.34
2017-04-06T07:43:30.232Z,1015.35
2017-04-06T07:44:39.203Z,1015.39
2017-04-06T07:45:48.178Z,1015.36
2017-04-06T07:46:57.156Z,1015.51
2017-04-06T07:48:06.383Z,1015.38
2017-04-06T07:49:15.358Z,1015.47
2017-04-06T07:50:24.336Z,1015.41
2017-04-06T07:51:33.655Z,1015.39
2017-04-06T07:52:42.628Z,1015.43
2017-04-06T07:53:51.857Z,1015.46
2017-04-06T07:55:00.832Z,1015.44
2017-04-06T07:56:09.896Z,1015.41
2017-04-06T07:57:18.968Z,1015.48
2017-04-06T07:58:27.975Z,1015.45
2017-04-06T07:59:37.372Z,1015.45
2017-04-06T08:00:46.349Z,1015.5
2017-04-06T08:01:55.427Z,1015.48
2017-04-06T08:03:04.409Z,1015.53
2017-04-06T08:04:13.382Z,1015.5
2017-04-06T08:05:22.605Z,1015.45
2017-04-06T08:06:31.591Z,1015.51
2017-04-06T08:07:40.573Z,1015.47
2017-04-06T08:08:49.563Z,1015.47
2017-04-06T08:09:58.537Z,1015.5
2017-04-06T08:11:07.768Z,1015.49
2017-04-06T08:12:16.883Z,1015.57
2017-04-06T08:13:25.949Z,1015.52
2017-04-06T08:14:34.929Z,1015.59
2017-04-06T08:15:43.905Z,1015.48
2017-04-06T08:16:53.122Z,1015.55
2017-04-06T08:18:02.149Z,1015.57
2017-04-06T08:19:11.109Z,1015.63
2017-04-06T08:20:20.226Z,1015.53
2017-04-06T08:21:29.306Z,1015.69
2017-04-06T08:22:38.514Z,1015.62
2017-04-06T08:23:47.462Z,1015.65
2017-04-06T08:24:56.588Z,1015.7
2017-04-06T08:26:05.544Z,1015.69
2017-04-06T08:27:14.497Z,1015.72
2017-04-06T08:28:23.736Z,1015.73
2017-04-06T08:29:32.689Z,1015.78
2017-04-06T08:30:41.642Z,1015.75
2017-04-06T08:31:50.602Z,1015.79
2017-04-06T08:32:59.715Z,1015.77
2017-04-06T08:34:09.117Z,1015.76
2017-04-06T08:35:18.491Z,1015.71
2017-04-06T08:36:27.755Z,1015.79
2017-04-06T08:37:36.900Z,1015.82
2017-04-06T08:38:46.015Z,1015.84
2017-04-06T08:39:55.381Z,1015.81
2017-04-06T08:41:04.472Z,1015.86
2017-04-06T08:42:13.840Z,1015.91
2017-04-06T08:43:22.860Z,1015.94
2017-04-06T08:44:31.988Z,1015.91
2017-04-06T08:45:41.721Z,1015.99
2017-04-06T08:46:50.858Z,1016.01
2017-04-06T08:48:00.337Z,1015.92
2017-04-06T08:49:09.714Z,1016.01
2017-04-06T08:50:18.796Z,1015.98
2017-04-06T08:51:28.134Z,1015.98
2017-04-06T08:52:37.121Z,1016.08
2017-04-06T08:53:46.414Z,1016.02
2017-04-06T08:54:55.526Z,1016.05
2017-04-06T08:56:04.488Z,1016.08
2017-04-06T08:57:13.743Z,1016.15
2017-04-06T08:58:22.702Z,1016.02
2017-04-06T08:59:31.656Z,1016.11
2017-04-06T09:00:40.615Z,1016.2
2017-04-06T09:01:49.624Z,1016.2
2017-04-06T09:02:59.275Z,1016.19
2017-04-06T09:04:08.365Z,1016.22
2017-04-06T09:05:17.606Z,1016.2
2017-04-06T09:06:26.914Z,1016.23
2017-04-06T09:07:35.973Z,1016.1
2017-04-06T09:08:45.679Z,1016.22
2017-04-06T09:09:54.864Z,1016.22
2017-04-06T09:11:03.824Z,1016.26
2017-04-06T09:12:12.781Z,1016.31
2017-04-06T09:13:21.767Z,1016.36
2017-04-06T09:14:31.006Z,1016.32
2017-04-06T09:15:40.304Z,1016.27
2017-04-06T09:16:49.360Z,1016.23
2017-04-06T09:17:58.639Z,1016.42
2017-04-06T09:19:07.590Z,1016.36
2017-04-06T09:20:16.793Z,1016.33
2017-04-06T09:21:25.749Z,1016.38
2017-04-06T09:22:34.703Z,1016.35
2017-04-06T09:23:43.652Z,1016.31
2017-04-06T09:24:52.776Z,1016.37
2017-04-06T09:26:02.069Z,1016.42
2017-04-06T09:27:11.025Z,1016.42
2017-04-06T09:28:20.302Z,1016.44
2017-04-06T09:29:29.258Z,1016.52
2017-04-06T09:30:38.214Z,1016.4
2017-04-06T09:31:47.475Z,1016.44
2017-04-06T09:32:56.425Z,1016.37
2017-04-06T09:34:05.385Z,1016.36
2017-04-06T09:35:14.425Z,1016.4
2017-04-06T09:36:23.379Z,1016.42
2017-04-06T09:37:32.582Z,1016.5
2017-04-06T09:38:41.537Z,1016.39
2017-04-06T09:39:50.584Z,1016.47
2017-04-06T09:40:59.535Z,1016.37
2017-04-06T09:42:08.491Z,1016.39
2017-04-06T09:43:17.721Z,1016.38
2017-04-06T09:44:26.675Z,1016.38
2017-04-06T09:45:35.969Z,1016.27
2017-04-06T09:46:44.921Z,1016.28
2017-04-06T09:47:53.877Z,1016.35
2017-04-06T09:49:03.083Z,1016.39
2017-04-06T09:50:12.034Z,1016.47
2017-04-06T09:51:20.993Z,1016.36
2017-04-06T09:52:29.947Z,1016.35
2017-04-06T09:53:38.902Z,1016.41
2017-04-06T09:54:48.155Z,1016.36
2017-04-06T09:55:57.192Z,1016.33
2017-04-06T09:57:06.238Z,1016.39
2017-04-06T09:58:15.193Z,1016.37
2017-04-06T09:59:24.234Z,1016.45
2017-04-06T10:00:33.528Z,1016.38
2017-04-06T10:01:42.805Z,1016.45
2017-04-06T10:02:51.764Z,1016.51
2017-04-06T10:04:00.767Z,1016.45
2017-04-06T10:05:09.733Z,1016.44
2017-04-06T10:06:18.938Z,1016.47
2017-04-06T10:07:27.892Z,1016.38
2017-04-06T10:08:36.849Z,1016.4
2017-04-06T10:09:45.804Z,1016.45
2017-04-06T10:10:54.766Z,1016.39
2017-04-06T10:12:04.067Z,1016.41
2017-04-06T10:13:13.154Z,1016.32
2017-04-06T10:14:22.138Z,1016.39
2017-04-06T10:15:31.095Z,1016.33
2017-04-06T10:16:40.047Z,1016.37
2017-04-06T10:17:49.324Z,1016.42
2017-04-06T10:18:58.306Z,1016.37
2017-04-06T10:20:07.308Z,1016.46
2017-04-06T10:21:16.621Z,1016.46
2017-04-06T10:22:25.580Z,1016.41
2017-04-06T10:23:34.787Z,1016.49
2017-04-06T10:24:43.743Z,1016.51
2017-04-06T10:25:52.698Z,1016.52
2017-04-06T10:27:01.652Z,1016.57
2017-04-06T10:28:10.608Z,1016.56
2017-04-06T10:29:19.817Z,1016.47
2017-04-06T10:30:28.781Z,1016.41
2017-04-06T10:31:37.738Z,1016.49
2017-04-06T10:32:46.692Z,1016.45
2017-04-06T10:33:55.734Z,1016.45
2017-04-06T10:35:05.040Z,1016.46
2017-04-06T10:36:13.995Z,1016.48
2017-04-06T10:37:22.950Z,1016.52
2017-04-06T10:38:31.904Z,1016.47
2017-04-06T10:39:40.860Z,1016.57
2017-04-06T10:40:50.244Z,1016.49
2017-04-06T10:41:59.233Z,1016.54
2017-04-06T10:43:08.191Z,1016.51
2017-04-06T10:44:17.145Z,1016.48
2017-04-06T10:45:26.107Z,1016.43
2017-04-06T10:46:35.492Z,1016.44
2017-04-06T10:47:44.523Z,1016.43
2017-04-06T10:48:53.569Z,1016.44
2017-04-06T10:50:02.523Z,1016.42
2017-04-06T10:51:11.481Z,1016.37
2017-04-06T10:52:20.771Z,1016.52
2017-04-06T10:53:29.730Z,1016.5
2017-04-06T10:54:39.051Z,1016.45
2017-04-06T10:55:48.322Z,1016.59
2017-04-06T10:56:57.278Z,1016.62
2017-04-06T10:58:06.534Z,1016.56
2017-04-06T10:59:15.489Z,1016.61
2017-04-06T11:00:24.449Z,1016.67
2017-04-06T11:01:33.407Z,1016.57
2017-04-06T11:02:42.363Z,1016.56
2017-04-06T11:03:51.708Z,1016.58
2017-04-06T11:05:00.672Z,1016.66
2017-04-06T11:06:09.630Z,1016.61
2017-04-06T11:07:18.584Z,1016.62
2017-04-06T11:08:27.543Z,1016.52
2017-04-06T11:09:36.834Z,1016.47
2017-04-06T11:10:45.786Z,1016.47
2017-04-06T11:11:54.744Z,1016.4
2017-04-06T11:13:03.705Z,1016.44
2017-04-06T11:14:12.666Z,1016.45
2017-04-06T11:15:21.961Z,1016.5
2017-04-06T11:16:30.921Z,1016.52
2017-04-06T11:17:39.966Z,1016.62
2017-04-06T11:18:48.922Z,1016.64
2017-04-06T11:19:57.876Z,1016.61
2017-04-06T11:21:07.082Z,1016.63
2017-04-06T11:22:16.040Z,1016.58
2017-04-06T11:23:25.086Z,1016.54
2017-04-06T11:24:34.217Z,1016.54
2017-04-06T11:25:43.171Z,1016.49
2017-04-06T11:26:52.515Z,1016.49
2017-04-06T11:28:01.475Z,1016.47
2017-04-06T11:29:10.431Z,1016.49
2017-04-06T11:30:19.383Z,1016.51
2017-04-06T11:31:28.335Z,1016.49
2017-04-06T11:32:37.594Z,1016.57
2017-04-06T11:33:46.545Z,1016.6
2017-04-06T11:34:55.497Z,1016.51
2017-04-06T11:36:04.457Z,1016.54
2017-04-06T11:37:13.417Z,1016.58
2017-04-06T11:38:22.625Z,1016.54
2017-04-06T11:39:31.583Z,1016.56
2017-04-06T11:40:40.538Z,1016.44
2017-04-06T11:41:49.585Z,1016.49
2017-04-06T11:42:58.540Z,1016.52
2017-04-06T11:44:07.841Z,1016.56
2017-04-06T11:45:16.799Z,1016.58
2017-04-06T11:46:25.760Z,1016.64
2017-04-06T11:47:34.717Z,1016.55
2017-04-06T11:48:43.676Z,1016.58
2017-04-06T11:49:52.935Z,1016.53
2017-04-06T11:51:02.063Z,1016.51
2017-04-06T11:52:11.194Z,1016.58
2017-04-06T11:53:20.155Z,1016.64
2017-04-06T11:54:29.114Z,1016.62
2017-04-06T11:55:38.647Z,1016.58
2017-04-06T11:56:47.616Z,1016.56
2017-04-06T11:57:56.573Z,1016.5
2017-04-06T11:59:05.528Z,1016.55
2017-04-06T12:00:14.579Z,1016.44
2017-04-06T12:01:23.796Z,1016.5
2017-04-06T12:02:32.753Z,1016.51
2017-04-06T12:03:41.708Z,1016.47
2017-04-06T12:04:50.678Z,1016.53
2017-04-06T12:05:59.632Z,1016.54
2017-04-06T12:07:08.838Z,1016.48
2017-04-06T12:08:17.794Z,1016.48
2017-04-06T12:09:26.837Z,1016.5
2017-04-06T12:10:36.124Z,1016.48
2017-04-06T12:11:45.085Z,1016.54
2017-04-06T12:12:54.300Z,1016.46
2017-04-06T12:14:03.259Z,1016.44
2017-04-06T12:15:12.218Z,1016.49
2017-04-06T12:16:21.173Z,1016.4
2017-04-06T12:17:30.121Z,1016.41
2017-04-06T12:18:39.375Z,1016.48
2017-04-06T12:19:48.337Z,1016.46
2017-04-06T12:20:57.381Z,1016.41
2017-04-06T12:22:06.338Z,1016.41
2017-04-06T12:23:15.297Z,1016.42
2017-04-06T12:24:24.504Z,1016.51
2017-04-06T12:25:33.546Z,1016.5
2017-04-06T12:26:42.677Z,1016.45
2017-04-06T12:27:51.717Z,1016.46
2017-04-06T12:29:02.599Z,1016.42
2017-04-06T12:30:12.220Z,1016.45
2017-04-06T12:31:21.180Z,1016.46
2017-04-06T12:32:30.144Z,1016.34
2017-04-06T12:33:39.108Z,1016.29
2017-04-06T12:34:48.062Z,1016.34
2017-04-06T12:35:57.274Z,1016.39
2017-04-06T12:37:06.238Z,1016.36
2017-04-06T12:38:15.294Z,1016.32
2017-04-06T12:39:24.250Z,1016.35
2017-04-06T12:40:33.205Z,1016.32
2017-04-06T12:41:42.411Z,1016.27
2017-04-06T12:42:51.454Z,1016.26
2017-04-06T12:44:00.412Z,1016.27
2017-04-06T12:45:09.372Z,1016.17
2017-04-06T12:46:18.658Z,1016.09
2017-04-06T12:47:28.214Z,1016.15
2017-04-06T12:48:37.166Z,1016.17
2017-04-06T12:49:46.118Z,1016.14
2017-04-06T12:50:55.075Z,1016.15
2017-04-06T12:52:04.036Z,1016.13
2017-04-06T12:53:13.248Z,1016.06
2017-04-06T12:54:22.510Z,1016.1
2017-04-06T12:55:32.659Z,1016.09
2017-04-06T12:56:42.104Z,1016
2017-04-06T12:57:51.061Z,1016.03
2017-04-06T12:59:00.456Z,1015.93
2017-04-06T13:00:09.969Z,1016.05
2017-04-06T13:01:18.925Z,1016.1
2017-04-06T13:02:27.887Z,1016.04
2017-04-06T13:03:36.862Z,1016.01
2017-04-06T13:04:46.347Z,1016.04
2017-04-06T13:05:55.301Z,1016.02
2017-04-06T13:07:04.259Z,1016.14
2017-04-06T13:08:13.215Z,1016.09
2017-04-06T13:09:22.300Z,1015.98
2017-04-06T13:10:31.510Z,1016.06
2017-04-06T13:11:40.467Z,1016.08
2017-04-06T13:12:49.428Z,1015.9
2017-04-06T13:14:00.835Z,1015.97
2017-04-06T13:15:09.796Z,1015.85
2017-04-06T13:16:19.344Z,1015.84
2017-04-06T13:17:28.306Z,1015.88
2017-04-06T13:18:37.591Z,1015.88
2017-04-06T13:19:46.647Z,1015.76
2017-04-06T13:20:55.607Z,1015.71
2017-04-06T13:22:04.907Z,1015.74
2017-04-06T13:23:13.867Z,1015.76
2017-04-06T13:24:22.822Z,1015.8
2017-04-06T13:25:31.782Z,1015.91
2017-04-06T13:26:40.745Z,1015.91
2017-04-06T13:27:49.957Z,1015.88
2017-04-06T13:28:58.926Z,1015.82
2017-04-06T13:30:08.057Z,1015.79
2017-04-06T13:31:17.017Z,1015.8
2017-04-06T13:32:25.997Z,1015.75
2017-04-06T13:33:35.293Z,1015.7
2017-04-06T13:34:44.261Z,1015.71
2017-04-06T13:35:53.543Z,1015.65
2017-04-06T13:37:02.522Z,1015.57
2017-04-06T13:38:11.486Z,1015.63
2017-04-06T13:39:20.743Z,1015.65
2017-04-06T13:40:29.721Z,1015.74
2017-04-06T13:41:38.762Z,1015.77
2017-04-06T13:42:47.725Z,1015.85
2017-04-06T13:43:56.688Z,1015.66
2017-04-06T13:45:05.900Z,1015.74
2017-04-06T13:46:14.860Z,1015.79
2017-04-06T13:47:23.819Z,1015.76
2017-04-06T13:48:32.776Z,1015.79
2017-04-06T13:49:41.816Z,1015.75
2017-04-06T13:50:51.111Z,1015.75
2017-04-06T13:52:00.157Z,1015.76
2017-04-06T13:53:09.116Z,1015.79
2017-04-06T13:54:18.101Z,1015.73
2017-04-06T13:55:27.081Z,1015.78
2017-04-06T13:56:36.312Z,1015.75
2017-04-06T13:57:45.298Z,1015.7